Time;durP1;ratioP1;P1;durP2;ratioP2;P2;SDS_P1;SDS_P2;PMS_P1;PMS_P2;Temp;Humidity;BMP_temperature;BMP_pressure;BME280_temperature;BME280_humidity;BME280_pressure;Samples;Min_cycle;Max_cycle;Signal;HPM_P1;HPM_P2
2024/01/18 00:01:40;;;;;;;16.98;8.23;;;-0.50;99.90;;;;;;5090714;28;20068;-90
2024/01/18 00:04:06;;;;;;;14.95;8.30;;;-0.50;99.90;;;;;;5075597;28;20061;-90
2024/01/18 00:06:32;;;;;;;13.75;7.88;;;-0.50;99.90;;;;;;5093272;28;20471;-90
2024/01/18 00:08:57;;;;;;;13.38;7.78;;;-0.50;99.90;;;;;;5093934;27;20502;-90
2024/01/18 00:11:25;;;;;;;14.93;7.78;;;-0.50;99.90;;;;;;5082301;28;20102;-90
2024/01/18 00:13:51;;;;;;;14.65;8.35;;;-0.50;99.90;;;;;;5092903;28;20051;-90
2024/01/18 00:16:16;;;;;;;17.15;9.60;;;-0.50;99.90;;;;;;5089722;28;20043;-89
2024/01/18 00:18:42;;;;;;;16.80;8.98;;;-0.60;99.90;;;;;;5072800;28;20426;-90
2024/01/18 00:21:08;;;;;;;15.63;7.68;;;-0.60;99.90;;;;;;5088140;28;20031;-89
2024/01/18 00:23:33;;;;;;;16.55;8.25;;;-0.60;99.90;;;;;;5073338;28;20028;-90
2024/01/18 00:25:59;;;;;;;15.32;8.15;;;-0.50;99.90;;;;;;5090745;28;20669;-89
2024/01/18 00:28:24;;;;;;;13.95;7.05;;;-0.60;99.90;;;;;;5092673;28;20047;-90
2024/01/18 00:30:50;;;;;;;12.88;7.15;;;-0.60;99.90;;;;;;5089421;28;20036;-89
2024/01/18 00:33:16;;;;;;;14.18;8.07;;;-0.70;99.90;;;;;;5089408;28;20042;-89
2024/01/18 00:35:41;;;;;;;15.55;7.68;;;-0.70;99.90;;;;;;5090064;28;20712;-90
2024/01/18 00:38:07;;;;;;;13.00;7.20;;;-0.70;99.90;;;;;;5072015;28;20051;-90
2024/01/18 00:40:32;;;;;;;14.75;7.13;;;-0.70;99.90;;;;;;5077265;28;20059;-90
2024/01/18 00:42:58;;;;;;;13.50;6.97;;;-0.70;99.90;;;;;;5093181;27;20036;-90
2024/01/18 00:45:24;;;;;;;13.98;6.40;;;-0.80;99.90;;;;;;5073852;28;20051;-90
2024/01/18 00:47:49;;;;;;;17.88;7.43;;;-0.70;99.90;;;;;;5090283;27;20050;-90
2024/01/18 00:50:15;;;;;;;13.60;6.85;;;-0.70;99.90;;;;;;5072182;28;20036;-89
2024/01/18 00:52:41;;;;;;;13.55;6.93;;;-0.70;99.90;;;;;;5075022;28;20040;-90
2024/01/18 00:55:07;;;;;;;15.52;8.57;;;-0.70;99.90;;;;;;5073286;28;20036;-89
2024/01/18 00:57:33;;;;;;;13.50;8.38;;;-0.80;99.90;;;;;;5074170;28;20036;-89
2024/01/18 00:59:59;;;;;;;15.10;6.90;;;-0.70;99.90;;;;;;5088867;28;20039;-90
2024/01/18 01:02:25;;;;;;;15.35;7.57;;;-0.80;99.90;;;;;;5071375;28;20040;-88
2024/01/18 01:04:51;;;;;;;13.23;7.07;;;-0.80;99.90;;;;;;5070313;28;20043;-89
2024/01/18 01:07:16;;;;;;;17.83;8.43;;;-0.80;99.90;;;;;;5091628;28;20032;-90
2024/01/18 01:09:42;;;;;;;14.48;6.50;;;-0.80;99.90;;;;;;5074696;28;20453;-90
2024/01/18 01:12:08;;;;;;;12.25;6.95;;;-0.80;99.90;;;;;;5089470;28;20038;-89
2024/01/18 01:14:33;;;;;;;15.23;7.07;;;-0.80;99.90;;;;;;5088444;28;20040;-89
2024/01/18 01:16:59;;;;;;;16.25;8.40;;;-0.80;99.90;;;;;;5071073;28;20505;-89
2024/01/18 01:19:24;;;;;;;16.65;6.55;;;-0.80;99.90;;;;;;5094386;28;20047;-90
2024/01/18 01:21:50;;;;;;;16.65;6.22;;;-0.90;99.90;;;;;;5074813;28;20036;-89
2024/01/18 01:24:16;;;;;;;14.48;6.05;;;-0.90;99.90;;;;;;5073267;28;20396;-90
2024/01/18 01:26:41;;;;;;;12.80;5.35;;;-0.90;99.90;;;;;;5100121;28;20107;-90
2024/01/18 01:29:08;;;;;;;11.02;5.60;;;-0.90;99.90;;;;;;5084650;28;20032;-89
2024/01/18 01:31:33;;;;;;;10.20;4.80;;;-0.90;99.90;;;;;;5080279;28;20031;-90
2024/01/18 01:33:59;;;;;;;9.30;4.53;;;-1.00;99.90;;;;;;5097110;27;20093;-90
2024/01/18 01:36:24;;;;;;;9.93;4.85;;;-1.00;99.90;;;;;;5080461;28;20028;-90
2024/01/18 01:38:50;;;;;;;10.10;4.20;;;-1.00;99.90;;;;;;5100137;27;20044;-90
2024/01/18 01:41:16;;;;;;;13.82;6.13;;;-1.00;99.90;;;;;;5082888;28;20039;-90
2024/01/18 01:44:01;;;;;;;10.55;4.30;;;-1.00;99.90;;;;;;5090986;28;20112;-90
2024/01/18 01:46:27;;;;;;;10.88;5.97;;;-1.00;99.90;;;;;;5077798;28;20076;-89
2024/01/18 01:48:59;;;;;;;9.93;4.18;;;-1.00;99.90;;;;;;5094411;28;20132;-90
2024/01/18 01:51:25;;;;;;;9.93;4.57;;;-1.00;99.90;;;;;;5080049;28;20044;-90
2024/01/18 01:53:53;;;;;;;10.48;4.60;;;-1.00;99.90;;;;;;5081349;28;20131;-90
2024/01/18 01:56:20;;;;;;;10.25;4.75;;;-1.10;99.90;;;;;;5079005;28;20051;-89
2024/01/18 01:58:47;;;;;;;12.38;5.20;;;-1.00;99.90;;;;;;5076681;28;20052;-89
2024/01/18 02:01:13;;;;;;;11.82;6.10;;;-1.00;99.90;;;;;;5091222;28;20039;-88
2024/01/18 02:03:39;;;;;;;12.68;5.97;;;-1.10;99.90;;;;;;5105823;28;20044;-89
2024/01/18 02:06:05;;;;;;;10.80;5.07;;;-1.10;99.90;;;;;;5094887;27;20092;-89
2024/01/18 02:08:31;;;;;;;8.50;4.38;;;-1.10;99.90;;;;;;5095968;27;20122;-89
2024/01/18 02:10:57;;;;;;;12.48;4.53;;;-1.10;99.90;;;;;;5075274;28;20040;-89
2024/01/18 02:13:24;;;;;;;10.40;3.97;;;-1.20;99.90;;;;;;5092648;28;20032;-89
2024/01/18 02:15:50;;;;;;;11.98;4.43;;;-1.20;99.90;;;;;;5073443;28;20044;-89
2024/01/18 02:18:15;;;;;;;9.30;3.83;;;-1.20;99.90;;;;;;5091854;28;20059;-89
2024/01/18 02:20:41;;;;;;;11.30;3.47;;;-1.20;99.90;;;;;;5076231;28;20078;-89
2024/01/18 02:23:09;;;;;;;9.13;3.72;;;-1.20;99.90;;;;;;5076841;28;20028;-90
2024/01/18 02:25:34;;;;;;;9.48;3.60;;;-1.20;99.90;;;;;;5093121;28;20040;-90
2024/01/18 02:28:00;;;;;;;12.70;5.05;;;-1.20;99.90;;;;;;5091814;28;20089;-90
2024/01/18 02:30:25;;;;;;;11.02;5.00;;;-1.20;99.90;;;;;;5073654;28;20062;-90
2024/01/18 02:32:51;;;;;;;10.23;4.55;;;-1.30;99.90;;;;;;5074672;28;20036;-90
2024/01/18 02:35:17;;;;;;;8.80;4.20;;;-1.30;99.90;;;;;;5074932;28;20152;-89
2024/01/18 02:37:43;;;;;;;11.43;4.55;;;-1.30;99.90;;;;;;5094334;28;20134;-90
2024/01/18 02:40:09;;;;;;;9.60;3.88;;;-1.30;99.90;;;;;;5099907;28;20051;-89
2024/01/18 02:42:35;;;;;;;7.05;3.03;;;-1.30;99.90;;;;;;5079435;28;20648;-89
2024/01/18 02:45:03;;;;;;;9.15;3.60;;;-1.20;99.90;;;;;;5077266;28;20036;-90
2024/01/18 02:47:30;;;;;;;8.95;2.88;;;-1.20;99.90;;;;;;5091684;28;20036;-90
2024/01/18 02:49:59;;;;;;;7.88;3.00;;;-1.20;99.90;;;;;;5081537;27;20034;-89
2024/01/18 02:52:24;;;;;;;7.80;3.00;;;-1.20;99.90;;;;;;5104672;27;20058;-90
2024/01/18 02:54:50;;;;;;;5.90;2.78;;;-1.20;99.90;;;;;;5075860;28;20043;-89
2024/01/18 02:57:15;;;;;;;6.82;1.77;;;-1.20;99.90;;;;;;5091854;27;20043;-90
2024/01/18 02:59:41;;;;;;;9.10;2.05;;;-1.20;99.90;;;;;;5075944;28;20066;-89
2024/01/18 03:02:07;;;;;;;6.32;2.38;;;-1.20;99.90;;;;;;5077167;28;20024;-90
2024/01/18 03:04:33;;;;;;;4.03;1.88;;;-1.20;99.90;;;;;;5092304;27;20040;-90
2024/01/18 03:06:58;;;;;;;8.40;2.05;;;-1.20;99.90;;;;;;5105006;27;20558;-89
2024/01/18 03:09:24;;;;;;;8.90;2.78;;;-1.30;99.90;;;;;;5074078;28;20483;-89
2024/01/18 03:11:49;;;;;;;5.95;2.42;;;-1.30;99.90;;;;;;5074932;28;20514;-90
2024/01/18 03:14:15;;;;;;;7.57;2.78;;;-1.30;99.90;;;;;;5073195;28;20047;-89
2024/01/18 03:16:43;;;;;;;8.88;2.72;;;-1.40;99.90;;;;;;5092807;27;20423;-90
2024/01/18 03:19:13;;;;;;;5.63;2.17;;;-1.30;99.90;;;;;;5091782;28;20032;-89
2024/01/18 03:21:39;;;;;;;5.88;2.15;;;-1.30;99.90;;;;;;5078200;28;20040;-89
2024/01/18 03:24:06;;;;;;;9.63;3.05;;;-1.30;99.90;;;;;;5090289;28;20029;-89
2024/01/18 03:26:32;;;;;;;6.95;2.50;;;-1.30;99.90;;;;;;5082269;28;20059;-89
2024/01/18 03:28:58;;;;;;;7.50;2.38;;;-1.30;99.90;;;;;;5092761;28;20062;-90
2024/01/18 03:31:23;;;;;;;8.35;2.67;;;-1.30;99.90;;;;;;5074333;28;20522;-90
2024/01/18 03:33:49;;;;;;;4.47;1.95;;;-1.30;99.90;;;;;;5076985;28;20044;-89
2024/01/18 03:36:14;;;;;;;4.20;1.83;;;-1.30;99.90;;;;;;5099300;28;20036;-89
2024/01/18 03:38:40;;;;;;;6.97;2.50;;;-1.30;99.90;;;;;;5091559;27;20515;-89
2024/01/18 03:41:05;;;;;;;9.38;2.70;;;-1.30;99.90;;;;;;5090582;28;20039;-90
2024/01/18 03:43:31;;;;;;;10.95;2.90;;;-1.30;99.90;;;;;;5090395;28;20082;-90
2024/01/18 03:45:56;;;;;;;6.85;2.13;;;-1.40;99.90;;;;;;5091243;28;20024;-90
2024/01/18 03:48:22;;;;;;;5.80;2.13;;;-1.40;99.90;;;;;;5091428;28;20032;-90
2024/01/18 03:50:48;;;;;;;5.85;2.42;;;-1.50;99.90;;;;;;5094365;27;20475;-90
2024/01/18 03:53:13;;;;;;;7.28;2.88;;;-1.50;99.90;;;;;;5072788;28;20085;-89
2024/01/18 03:55:39;;;;;;;11.80;2.22;;;-1.50;99.90;;;;;;5073770;27;20048;-89
2024/01/18 03:58:04;;;;;;;8.00;3.70;;;-1.50;99.90;;;;;;5090021;28;20081;-90
2024/01/18 04:00:30;;;;;;;11.73;4.25;;;-1.50;99.90;;;;;;5089296;28;20495;-89
2024/01/18 04:02:56;;;;;;;5.80;3.08;;;-1.50;99.90;;;;;;5094762;27;20110;-89
2024/01/18 04:05:21;;;;;;;5.13;2.17;;;-1.50;99.90;;;;;;5092258;28;20060;-89
2024/01/18 04:07:47;;;;;;;5.90;2.33;;;-1.50;99.90;;;;;;5072898;28;20032;-89
2024/01/18 04:10:12;;;;;;;9.10;2.05;;;-1.50;99.90;;;;;;5090932;27;20036;-90
2024/01/18 04:12:38;;;;;;;8.90;1.98;;;-1.50;99.90;;;;;;5098692;28;20450;-89
2024/01/18 04:15:05;;;;;;;5.55;2.20;;;-1.40;99.90;;;;;;5092819;28;20621;-89
2024/01/18 04:17:31;;;;;;;3.65;1.48;;;-1.40;99.90;;;;;;5074919;28;20105;-89
2024/01/18 04:19:57;;;;;;;2.85;1.65;;;-1.40;99.90;;;;;;5075314;28;20495;-89
2024/01/18 04:22:23;;;;;;;4.80;1.67;;;-1.40;99.90;;;;;;5074409;28;20029;-89
2024/01/18 04:24:49;;;;;;;4.03;1.55;;;-1.40;99.90;;;;;;5091107;27;20040;-89
2024/01/18 04:27:14;;;;;;;4.88;1.77;;;-1.40;99.90;;;;;;5088437;28;20403;-89
2024/01/18 04:29:41;;;;;;;4.93;1.90;;;-1.40;99.90;;;;;;5097968;27;20035;-89
2024/01/18 04:32:07;;;;;;;8.52;3.20;;;-1.40;99.90;;;;;;5090910;28;20030;-89
2024/01/18 04:34:33;;;;;;;8.50;2.67;;;-1.40;99.90;;;;;;5074796;28;20138;-89
2024/01/18 04:36:59;;;;;;;5.82;2.38;;;-1.50;99.90;;;;;;5072848;27;20049;-89
2024/01/18 04:39:24;;;;;;;5.72;2.70;;;-1.50;99.90;;;;;;5089403;28;20032;-89
2024/01/18 04:41:50;;;;;;;5.13;2.10;;;-1.60;99.90;;;;;;5088098;28;20032;-89
2024/01/18 04:44:16;;;;;;;10.73;2.55;;;-1.50;99.90;;;;;;5089360;28;20081;-90
2024/01/18 04:46:41;;;;;;;7.45;2.22;;;-1.50;99.90;;;;;;5095720;27;20465;-89
2024/01/18 04:49:07;;;;;;;5.13;2.58;;;-1.50;99.90;;;;;;5074169;28;20039;-89
2024/01/18 04:51:33;;;;;;;5.53;2.22;;;-1.50;99.90;;;;;;5089383;28;20556;-90
2024/01/18 04:53:59;;;;;;;6.68;1.98;;;-1.50;99.90;;;;;;5072114;28;20123;-90
2024/01/18 04:56:25;;;;;;;5.72;2.17;;;-1.50;99.90;;;;;;5089154;28;20050;-90
2024/01/18 04:58:51;;;;;;;7.88;2.15;;;-1.50;99.90;;;;;;5091135;27;20451;-89
2024/01/18 05:01:17;;;;;;;6.18;2.17;;;-1.50;99.90;;;;;;5090462;28;20535;-90
2024/01/18 05:03:43;;;;;;;4.97;1.88;;;-1.50;99.90;;;;;;5074870;28;20035;-90
2024/01/18 05:06:09;;;;;;;7.22;1.92;;;-1.50;99.90;;;;;;5089801;28;20033;-90
2024/01/18 05:08:35;;;;;;;6.03;1.92;;;-1.50;99.90;;;;;;5090967;28;20032;-89
2024/01/18 05:11:00;;;;;;;3.33;1.20;;;-1.50;99.90;;;;;;5087574;28;20047;-89
2024/01/18 05:13:26;;;;;;;3.30;1.30;;;-1.40;99.90;;;;;;5093355;28;20119;-89
2024/01/18 05:15:52;;;;;;;4.53;1.33;;;-1.40;99.90;;;;;;5092266;28;20043;-89
2024/01/18 05:18:19;;;;;;;4.72;1.15;;;-1.40;99.90;;;;;;5093804;28;20396;-90
2024/01/18 05:20:44;;;;;;;5.53;1.30;;;-1.40;99.90;;;;;;5101077;28;20039;-89
2024/01/18 05:23:10;;;;;;;3.85;1.45;;;-1.30;99.90;;;;;;5094157;28;20024;-89
2024/01/18 05:25:36;;;;;;;2.22;0.85;;;-1.30;99.90;;;;;;5078141;28;20677;-90
2024/01/18 05:28:01;;;;;;;4.85;1.35;;;-1.30;99.90;;;;;;5089111;28;20044;-90
2024/01/18 05:30:27;;;;;;;6.18;1.70;;;-1.30;99.90;;;;;;5091476;28;20035;-90
2024/01/18 05:32:53;;;;;;;2.90;1.17;;;-1.20;99.90;;;;;;5074908;28;20552;-90
2024/01/18 05:35:18;;;;;;;3.95;0.98;;;-1.20;99.90;;;;;;5071901;28;20078;-89
2024/01/18 05:37:44;;;;;;;2.97;1.27;;;-1.30;99.90;;;;;;5070472;28;20447;-89
2024/01/18 05:40:10;;;;;;;4.45;1.15;;;-1.20;99.90;;;;;;5088085;28;20032;-89
2024/01/18 05:42:35;;;;;;;2.13;0.85;;;-1.20;99.90;;;;;;5089150;28;20089;-90
2024/01/18 05:45:01;;;;;;;2.78;1.05;;;-1.20;99.90;;;;;;5092267;28;20529;-89
2024/01/18 05:47:27;;;;;;;3.03;1.20;;;-1.20;99.90;;;;;;5072286;28;20040;-90
2024/01/18 05:49:52;;;;;;;2.63;1.20;;;-1.20;99.90;;;;;;5074615;28;20055;-89
2024/01/18 05:52:18;;;;;;;4.63;1.30;;;-1.20;99.90;;;;;;5076991;28;20032;-89
2024/01/18 05:54:43;;;;;;;5.13;1.20;;;-1.20;99.90;;;;;;5090024;28;20542;-89
2024/01/18 05:57:09;;;;;;;4.78;1.80;;;-1.20;99.90;;;;;;5070884;28;20028;-89
2024/01/18 05:59:35;;;;;;;3.25;1.30;;;-1.20;99.90;;;;;;5075307;28;20071;-89
2024/01/18 06:02:01;;;;;;;4.05;1.20;;;-1.20;99.90;;;;;;5075257;28;20028;-90
2024/01/18 06:04:27;;;;;;;3.80;1.15;;;-1.10;99.90;;;;;;5072632;28;20094;-90
2024/01/18 06:06:52;;;;;;;5.63;1.20;;;-1.20;99.90;;;;;;5070705;28;20043;-90
2024/01/18 06:09:18;;;;;;;2.67;1.17;;;-1.20;99.90;;;;;;5070543;28;20036;-89
2024/01/18 06:11:45;;;;;;;3.80;1.05;;;-1.20;99.90;;;;;;5089245;28;20036;-89
2024/01/18 06:14:11;;;;;;;5.25;1.00;;;-1.20;99.90;;;;;;5090361;28;20042;-89
2024/01/18 06:16:38;;;;;;;8.20;1.35;;;-1.30;99.90;;;;;;5089938;28;20044;-90
2024/01/18 06:19:04;;;;;;;1.30;0.70;;;-1.30;99.90;;;;;;5092494;28;20024;-89
2024/01/18 06:21:29;;;;;;;1.33;0.60;;;-1.30;99.90;;;;;;5074780;28;20509;-89
2024/01/18 06:23:55;;;;;;;0.40;0.40;;;-1.30;99.90;;;;;;5092042;28;20090;-89
2024/01/18 06:26:20;;;;;;;0.40;0.40;;;-1.30;99.90;;;;;;5093126;28;20036;-88
2024/01/18 06:28:46;;;;;;;1.38;0.70;;;-1.30;99.90;;;;;;5100479;27;20549;-88
2024/01/18 06:31:13;;;;;;;0.80;0.57;;;-1.30;99.90;;;;;;5094319;27;20055;-89
2024/01/18 06:33:39;;;;;;;0.90;0.35;;;-1.20;99.90;;;;;;5092575;28;20115;-90
2024/01/18 06:36:07;;;;;;;1.08;0.60;;;-1.30;99.90;;;;;;5090759;28;20146;-90
2024/01/18 06:38:32;;;;;;;2.15;1.17;;;-1.30;99.90;;;;;;5097169;28;20079;-90
2024/01/18 06:40:59;;;;;;;4.07;1.35;;;-1.30;99.90;;;;;;5094514;28;20678;-90
2024/01/18 06:43:26;;;;;;;3.28;1.15;;;-1.40;99.90;;;;;;5076288;28;20039;-90
2024/01/18 06:45:55;;;;;;;4.82;1.20;;;-1.40;99.90;;;;;;5076308;28;20040;-89
2024/01/18 06:48:21;;;;;;;2.25;0.95;;;-1.40;99.90;;;;;;5076608;28;20040;-90
2024/01/18 06:50:47;;;;;;;3.55;1.08;;;-1.40;99.90;;;;;;5074224;28;20118;-90
2024/01/18 06:53:13;;;;;;;1.42;0.70;;;-1.40;99.90;;;;;;5095503;28;20047;-90
2024/01/18 06:55:38;;;;;;;2.92;0.77;;;-1.30;99.90;;;;;;5114257;27;20040;-91
2024/01/18 06:58:04;;;;;;;4.47;0.90;;;-1.30;99.90;;;;;;5112512;27;20036;-91
2024/01/18 07:00:30;;;;;;;2.30;0.82;;;-1.30;99.90;;;;;;5077197;28;20482;-91
2024/01/18 07:02:56;;;;;;;4.63;0.68;;;-1.30;99.90;;;;;;5080281;28;20031;-90
2024/01/18 07:05:21;;;;;;;1.30;0.52;;;-1.30;99.90;;;;;;5093610;28;20040;-91
2024/01/18 07:07:47;;;;;;;1.75;0.52;;;-1.30;99.90;;;;;;5095331;28;20556;-90
2024/01/18 07:10:12;;;;;;;1.83;0.65;;;-1.20;99.90;;;;;;5079763;28;20553;-91
2024/01/18 07:12:38;;;;;;;2.80;0.88;;;-1.20;99.90;;;;;;5082205;27;20043;-90
2024/01/18 07:15:07;;;;;;;3.78;0.60;;;-1.20;99.90;;;;;;5078338;28;20040;-90
2024/01/18 07:17:32;;;;;;;2.30;0.82;;;-1.20;99.90;;;;;;5100810;27;20044;-89
2024/01/18 07:19:58;;;;;;;2.95;0.55;;;-1.20;99.90;;;;;;5092591;27;20039;-91
2024/01/18 07:22:25;;;;;;;4.10;1.15;;;-1.20;99.90;;;;;;5092679;27;20071;-91
2024/01/18 07:24:52;;;;;;;4.25;1.10;;;-1.20;99.90;;;;;;5103941;27;20621;-90
2024/01/18 07:27:17;;;;;;;6.25;1.27;;;-1.20;99.90;;;;;;5081915;28;20093;-90
2024/01/18 07:29:43;;;;;;;3.58;0.90;;;-1.20;99.90;;;;;;5093805;28;20750;-91
2024/01/18 07:32:09;;;;;;;5.85;1.02;;;-1.20;99.90;;;;;;5074882;28;20032;-90
2024/01/18 07:34:35;;;;;;;1.50;0.65;;;-1.20;99.90;;;;;;5103531;28;20032;-91
2024/01/18 07:37:01;;;;;;;0.30;0.30;;;-1.20;99.90;;;;;;5097626;28;20094;-90
2024/01/18 07:39:27;;;;;;;0.93;0.70;;;-1.20;99.90;;;;;;5090748;28;20491;-91
2024/01/18 07:41:53;;;;;;;0.65;0.40;;;-1.20;99.90;;;;;;5100718;27;20068;-90
2024/01/18 07:44:19;;;;;;;1.13;0.65;;;-1.20;99.90;;;;;;5091737;28;20062;-91
2024/01/18 07:46:45;;;;;;;2.83;0.43;;;-1.10;99.90;;;;;;5093192;28;20036;-91
2024/01/18 07:49:10;;;;;;;0.43;0.30;;;-1.10;99.90;;;;;;5076551;28;20088;-90
2024/01/18 07:51:36;;;;;;;7.88;1.25;;;-1.10;99.90;;;;;;5076330;28;20048;-90
2024/01/18 07:54:03;;;;;;;1.50;0.50;;;-1.20;99.90;;;;;;5099209;28;20040;-90
2024/01/18 07:56:28;;;;;;;1.40;0.60;;;-1.20;99.90;;;;;;5079898;28;20032;-90
2024/01/18 07:58:54;;;;;;;2.88;0.82;;;-1.20;99.90;;;;;;5097639;27;20422;-90
2024/01/18 08:01:20;;;;;;;2.00;0.82;;;-1.20;99.90;;;;;;5106156;28;20039;-90
2024/01/18 08:03:45;;;;;;;6.22;1.48;;;-1.20;99.90;;;;;;5098660;28;20032;-90
2024/01/18 08:06:11;;;;;;;0.55;0.45;;;-1.30;99.90;;;;;;5093916;27;20036;-90
2024/01/18 08:08:38;;;;;;;1.55;0.73;;;-1.30;99.90;;;;;;5077979;28;20067;-90
2024/01/18 08:11:03;;;;;;;2.80;0.80;;;-1.30;99.90;;;;;;5084556;28;20051;-89
2024/01/18 08:13:29;;;;;;;3.35;1.05;;;-1.30;99.90;;;;;;5084266;28;20518;-89
2024/01/18 08:15:56;;;;;;;2.58;0.88;;;-1.30;99.90;;;;;;5075087;27;20123;-90
2024/01/18 08:18:23;;;;;;;1.55;0.60;;;-1.30;99.90;;;;;;5105607;28;20118;-91
2024/01/18 08:20:50;;;;;;;2.75;0.80;;;-1.30;99.90;;;;;;5097447;28;20074;-90
2024/01/18 08:23:17;;;;;;;2.65;1.00;;;-1.30;99.90;;;;;;5082383;28;20035;-90
2024/01/18 08:25:43;;;;;;;1.95;0.77;;;-1.30;99.90;;;;;;5103362;28;21476;-90
2024/01/18 08:28:10;;;;;;;6.38;1.58;;;-1.30;99.90;;;;;;5101614;28;20096;-89
2024/01/18 08:30:36;;;;;;;4.53;0.93;;;-1.30;99.90;;;;;;5101074;27;20051;-90
2024/01/18 08:33:02;;;;;;;2.97;1.13;;;-1.30;99.90;;;;;;5097748;28;20054;-89
2024/01/18 08:35:28;;;;;;;3.65;1.40;;;-1.30;99.90;;;;;;5099339;28;20027;-89
2024/01/18 08:37:53;;;;;;;3.53;0.75;;;-1.30;99.90;;;;;;5099898;28;20126;-90
2024/01/18 08:40:19;;;;;;;3.03;0.98;;;-1.30;99.90;;;;;;5099556;28;20077;-89
2024/01/18 08:42:45;;;;;;;3.80;1.23;;;-1.30;99.90;;;;;;5081110;28;20036;-89
2024/01/18 08:45:12;;;;;;;2.03;0.98;;;-1.30;99.90;;;;;;5081861;28;20387;-89
2024/01/18 08:47:39;;;;;;;1.55;0.65;;;-1.20;99.90;;;;;;5075267;28;20035;-90
2024/01/18 08:50:05;;;;;;;1.40;0.80;;;-1.20;99.90;;;;;;5095007;27;20047;-90
2024/01/18 08:52:31;;;;;;;6.05;0.98;;;-1.10;99.90;;;;;;5089440;28;20047;-90
2024/01/18 08:54:56;;;;;;;1.92;0.73;;;-1.00;99.90;;;;;;5090662;28;20046;-90
2024/01/18 08:57:22;;;;;;;1.13;0.65;;;-0.90;99.90;;;;;;5093452;28;20035;-90
2024/01/18 08:59:49;;;;;;;2.40;1.15;;;-0.80;99.90;;;;;;5093856;28;20072;-90
2024/01/18 09:02:15;;;;;;;4.65;1.08;;;-0.80;99.90;;;;;;5081402;28;20459;-90
2024/01/18 09:04:41;;;;;;;1.85;0.85;;;-0.70;99.90;;;;;;5074284;28;20518;-90
2024/01/18 09:07:06;;;;;;;5.13;1.67;;;-0.60;99.90;;;;;;5078661;28;20062;-89
2024/01/18 09:09:32;;;;;;;3.30;1.15;;;-0.60;99.90;;;;;;5076961;28;20040;-89
2024/01/18 09:11:58;;;;;;;5.63;1.40;;;-0.60;99.90;;;;;;5095805;28;20077;-89
2024/01/18 09:14:24;;;;;;;4.90;1.05;;;-0.50;99.90;;;;;;5099452;28;20039;-90
2024/01/18 09:16:50;;;;;;;3.70;1.10;;;-0.40;99.90;;;;;;5075403;28;20049;-90
2024/01/18 09:19:20;;;;;;;4.90;1.20;;;-0.40;99.90;;;;;;5096158;28;20044;-90
2024/01/18 09:21:46;;;;;;;2.88;1.10;;;-0.30;99.90;;;;;;5104241;28;20486;-90
2024/01/18 09:24:13;;;;;;;1.75;0.85;;;-0.20;99.90;;;;;;5095307;28;20036;-90
2024/01/18 09:26:38;;;;;;;3.63;1.00;;;-0.20;99.90;;;;;;5099279;28;20032;-90
2024/01/18 09:29:04;;;;;;;4.30;1.30;;;-0.10;99.90;;;;;;5082637;28;20032;-89
2024/01/18 09:31:29;;;;;;;1.23;0.50;;;0.00;99.90;;;;;;5099233;28;20502;-91
2024/01/18 09:33:55;;;;;;;1.73;0.80;;;0.10;99.90;;;;;;5078189;28;20036;-90
2024/01/18 09:36:20;;;;;;;2.00;1.15;;;0.10;99.90;;;;;;5082092;28;20478;-90
2024/01/18 09:38:49;;;;;;;3.17;0.95;;;0.20;99.90;;;;;;5099663;28;20039;-90
2024/01/18 09:41:18;;;;;;;1.85;0.85;;;0.30;99.90;;;;;;5095170;28;20038;-89
2024/01/18 09:43:44;;;;;;;1.33;0.70;;;0.30;99.90;;;;;;5090329;28;20038;-86
2024/01/18 09:46:11;;;;;;;0.70;0.50;;;0.40;99.90;;;;;;5101057;28;20032;-87
2024/01/18 09:48:38;;;;;;;3.83;1.45;;;0.50;99.90;;;;;;5093285;28;20120;-90
2024/01/18 09:51:06;;;;;;;2.92;0.68;;;0.50;99.90;;;;;;5075210;28;20028;-90
2024/01/18 09:53:33;;;;;;;3.95;1.30;;;0.60;99.90;;;;;;5107361;28;20040;-91
2024/01/18 09:56:03;;;;;;;3.10;1.05;;;0.70;99.90;;;;;;5075083;28;20036;-90
2024/01/18 09:58:30;;;;;;;6.63;1.05;;;0.80;99.90;;;;;;5079015;28;20024;-91
2024/01/18 10:00:59;;;;;;;3.00;0.90;;;0.90;99.90;;;;;;5096419;27;20548;-90
2024/01/18 10:03:26;;;;;;;3.17;1.38;;;0.90;99.90;;;;;;5076898;28;20109;-90
2024/01/18 10:05:51;;;;;;;4.10;1.75;;;0.90;99.90;;;;;;5074606;28;20040;-90
2024/01/18 10:08:17;;;;;;;4.22;1.60;;;1.00;99.90;;;;;;5085588;28;20028;-90
2024/01/18 10:10:43;;;;;;;3.22;0.95;;;1.10;99.90;;;;;;5095064;28;20465;-90
2024/01/18 10:13:15;;;;;;;3.75;0.82;;;1.10;99.90;;;;;;5074891;28;20028;-90
2024/01/18 10:15:41;;;;;;;4.50;0.98;;;1.20;99.90;;;;;;5078606;28;20114;-90
2024/01/18 10:18:08;;;;;;;3.88;1.30;;;1.30;99.90;;;;;;5081803;27;20036;-91
2024/01/18 10:20:33;;;;;;;3.17;1.30;;;1.40;99.90;;;;;;5093565;28;20487;-90
2024/01/18 10:23:00;;;;;;;4.18;1.10;;;1.50;99.90;;;;;;5102149;27;20031;-90
2024/01/18 10:25:27;;;;;;;3.60;1.45;;;1.50;99.90;;;;;;5090446;28;20036;-90
2024/01/18 10:27:54;;;;;;;2.83;1.10;;;1.60;99.90;;;;;;5076609;28;20442;-90
2024/01/18 10:30:19;;;;;;;4.40;1.48;;;1.70;99.90;;;;;;5082444;28;20066;-90
2024/01/18 10:32:45;;;;;;;3.78;1.08;;;1.80;99.90;;;;;;5080341;28;20491;-91
2024/01/18 10:35:24;;;;;;;3.72;1.48;;;1.90;99.90;;;;;;5082730;28;20039;-91
2024/01/18 10:38:06;;;;;;;4.10;1.08;;;2.00;99.90;;;;;;5079814;27;20054;-90
2024/01/18 10:40:38;;;;;;;3.25;1.02;;;2.20;99.90;;;;;;5097569;28;20036;-90
2024/01/18 10:43:07;;;;;;;4.80;1.30;;;2.30;99.90;;;;;;5104603;28;20084;-91
2024/01/18 10:45:33;;;;;;;4.28;1.20;;;2.50;99.90;;;;;;5094457;28;20046;-91
2024/01/18 10:47:59;;;;;;;3.55;1.05;;;2.60;99.90;;;;;;5101335;28;20043;-92
2024/01/18 10:50:29;;;;;;;6.22;1.70;;;2.80;99.90;;;;;;5078464;28;20028;-91
2024/01/18 10:52:57;;;;;;;1.20;0.75;;;3.00;99.90;;;;;;5096289;28;20043;-91
2024/01/18 10:55:22;;;;;;;6.85;1.02;;;3.10;99.90;;;;;;5084512;28;20122;-90
2024/01/18 10:57:48;;;;;;;4.22;0.95;;;3.30;99.90;;;;;;5073652;28;20039;-91
2024/01/18 11:00:16;;;;;;;0.55;0.38;;;3.50;99.90;;;;;;5071859;28;20119;-91
2024/01/18 11:02:44;;;;;;;5.40;1.13;;;3.60;99.90;;;;;;5081558;27;20050;-91
2024/01/18 11:05:17;;;;;;;6.03;0.90;;;3.80;99.90;;;;;;5078024;28;20133;-92
2024/01/18 11:07:42;;;;;;;;;;;3.90;99.90;;;;;;5095861;28;20064;-91
2024/01/18 11:10:13;;;;;;;1.52;0.75;;;4.00;99.90;;;;;;5103565;28;19915;-91
2024/01/18 11:12:45;;;;;;;1.52;0.60;;;4.20;99.90;;;;;;5093515;28;20070;-92
2024/01/18 11:15:13;;;;;;;4.03;0.70;;;4.30;99.90;;;;;;5075617;28;20040;-92
2024/01/18 11:17:51;;;;;;;3.10;1.02;;;4.50;99.90;;;;;;5075768;28;20776;-91
2024/01/18 11:20:18;;;;;;;1.65;0.60;;;4.70;99.90;;;;;;5095444;28;20040;-91
2024/01/18 11:22:45;;;;;;;1.88;1.17;;;4.90;99.90;;;;;;5098485;28;20112;-92
2024/01/18 11:25:12;;;;;;;2.65;0.95;;;5.10;99.90;;;;;;5077321;28;20071;-92
2024/01/18 11:27:41;;;;;;;3.30;1.00;;;5.40;99.90;;;;;;5100137;28;20048;-91
2024/01/18 11:30:38;;;;;;;5.10;1.30;;;5.70;99.90;;;;;;5080672;27;20111;-92
2024/01/18 11:33:07;;;;;;;3.78;1.23;;;5.90;99.90;;;;;;5097257;27;20040;-91
2024/01/18 11:35:34;;;;;;;4.05;1.08;;;6.10;99.90;;;;;;5092261;28;20036;-91
2024/01/18 11:38:43;;;;;;;3.67;0.82;;;6.10;99.90;;;;;;5102177;28;20043;-90
2024/01/18 11:41:10;;;;;;;2.83;0.63;;;6.10;99.90;;;;;;5011904;28;20752;-91
2024/01/18 11:43:55;;;;;;;5.30;1.02;;;6.10;99.90;;;;;;5066914;28;20036;-91
2024/01/18 11:46:35;;;;;;;6.43;1.55;;;6.10;99.90;;;;;;5081665;28;20048;-91
2024/01/18 11:49:01;;;;;;;3.13;0.82;;;6.30;99.90;;;;;;5098472;28;20126;-91
2024/01/18 11:51:28;;;;;;;3.15;0.77;;;6.50;99.90;;;;;;5095082;28;20126;-89
2024/01/18 11:53:55;;;;;;;1.85;0.70;;;6.70;99.90;;;;;;5080292;28;20040;-90
2024/01/18 11:56:23;;;;;;;3.25;0.65;;;6.90;99.90;;;;;;5100473;27;20039;-90
2024/01/18 11:58:51;;;;;;;8.10;1.58;;;7.10;99.90;;;;;;5083183;28;20036;-90
2024/01/18 12:01:22;;;;;;;3.17;0.80;;;7.40;99.90;;;;;;5094156;28;20075;-89
2024/01/18 12:03:47;;;;;;;5.82;1.20;;;7.60;99.90;;;;;;5097663;28;20394;-90
2024/01/18 12:06:14;;;;;;;7.75;1.38;;;7.80;99.90;;;;;;5101435;28;20035;-90
2024/01/18 12:08:41;;;;;;;7.45;1.80;;;8.20;99.90;;;;;;5084043;28;20055;-90
2024/01/18 12:11:07;;;;;;;3.15;0.70;;;8.60;99.90;;;;;;5099514;28;20084;-90
2024/01/18 12:13:33;;;;;;;6.38;0.77;;;9.00;99.90;;;;;;5098971;28;20035;-90
2024/01/18 12:15:59;;;;;;;4.50;0.80;;;9.10;99.90;;;;;;5077058;28;20040;-91
2024/01/18 12:18:25;;;;;;;3.17;1.13;;;9.70;99.90;;;;;;5095730;28;20047;-90
2024/01/18 12:20:51;;;;;;;2.88;0.77;;;10.50;99.90;;;;;;5097713;28;20047;-90
2024/01/18 12:23:16;;;;;;;4.07;1.45;;;11.40;99.90;;;;;;5099199;28;20032;-90
2024/01/18 12:25:43;;;;;;;2.10;0.73;;;12.70;99.90;;;;;;5090584;27;20036;-90
2024/01/18 12:28:10;;;;;;;2.95;0.63;;;14.00;99.90;;;;;;5099260;28;20036;-90
2024/01/18 12:30:40;;;;;;;4.43;0.85;;;14.80;99.90;;;;;;5103296;28;20490;-91
2024/01/18 12:33:06;;;;;;;5.20;0.70;;;15.40;99.90;;;;;;5102138;27;20654;-91
2024/01/18 12:35:36;;;;;;;3.25;0.73;;;16.10;99.90;;;;;;5097564;28;20059;-91
2024/01/18 12:38:02;;;;;;;2.15;0.63;;;16.40;99.90;;;;;;5099146;28;20160;-90
2024/01/18 12:40:28;;;;;;;4.80;1.23;;;16.40;99.90;;;;;;5096138;28;20023;-91
2024/01/18 12:43:01;;;;;;;3.40;0.55;;;16.50;91.40;;;;;;5083054;28;20064;-90
2024/01/18 12:45:27;;;;;;;5.25;1.10;;;16.20;92.50;;;;;;5092787;28;20119;-90